Time;durP1;ratioP1;P1;durP2;ratioP2;P2;SDS_P1;SDS_P2;PMS_P1;PMS_P2;Temp;Humidity;BMP_temperature;BMP_pressure;BME280_temperature;BME280_humidity;BME280_pressure;Samples;Min_cycle;Max_cycle;Signal;HPM_P1;HPM_P2
2022/02/22 00:01:51;;;;;;;1999.90;999.90;;;;;;;0.45;60.06;100083.19;5009566;27;99465;-74
2022/02/22 00:04:19;;;;;;;1999.90;999.90;;;;;;;0.42;60.08;100090.91;5019904;27;97571;-75
2022/02/22 00:06:47;;;;;;;1999.90;999.90;;;;;;;0.43;59.58;100097.06;5012390;28;97389;-75
2022/02/22 00:09:15;;;;;;;1999.90;999.90;;;;;;;0.43;59.97;100103.16;5013119;28;98481;-74
2022/02/22 00:11:43;;;;;;;1999.90;999.90;;;;;;;0.43;59.91;100108.38;5014977;28;98811;-74
2022/02/22 00:14:12;;;;;;;1999.90;999.90;;;;;;;0.40;60.29;100120.44;5013594;28;99718;-74
2022/02/22 00:16:43;;;;;;;1999.90;999.90;;;;;;;0.41;60.39;100122.25;5012822;28;96864;-76
2022/02/22 00:19:11;;;;;;;1999.90;999.90;;;;;;;0.38;60.76;100114.22;5014532;28;98413;-75
2022/02/22 00:21:38;;;;;;;1999.90;999.90;;;;;;;0.39;60.17;100121.25;5012757;28;98757;-72
2022/02/22 00:24:06;;;;;;;1999.90;999.90;;;;;;;0.41;60.26;100120.50;5014946;27;99381;-76
2022/02/22 00:26:34;;;;;;;1999.90;999.90;;;;;;;0.42;59.92;100137.09;5013716;28;98094;-74
2022/02/22 00:29:02;;;;;;;1999.90;999.90;;;;;;;0.41;60.51;100132.72;5013947;27;97546;-73
2022/02/22 00:31:31;;;;;;;1999.90;999.90;;;;;;;0.41;60.28;100141.44;5014448;28;98062;-73
2022/02/22 00:33:59;;;;;;;1999.90;999.90;;;;;;;0.44;60.34;100136.38;5022051;28;98742;-73
2022/02/22 00:36:26;;;;;;;1999.90;999.90;;;;;;;0.48;59.74;100133.09;5016858;28;98732;-74
2022/02/22 00:38:54;;;;;;;1999.90;999.90;;;;;;;0.42;60.61;100143.25;5027696;28;96810;-74
2022/02/22 00:41:22;;;;;;;1999.90;999.90;;;;;;;0.43;60.26;100154.63;5029702;28;97733;-74
2022/02/22 00:43:50;;;;;;;1999.90;999.90;;;;;;;0.42;60.82;100150.19;5026435;28;100368;-75
2022/02/22 00:46:18;;;;;;;1999.90;999.90;;;;;;;0.41;60.79;100161.50;5027836;27;97530;-72
2022/02/22 00:48:47;;;;;;;1999.90;999.90;;;;;;;0.41;60.89;100153.63;5028327;27;96994;-73
2022/02/22 00:51:15;;;;;;;1999.90;999.90;;;;;;;0.38;61.69;100171.78;5042686;27;99340;-75
2022/02/22 00:53:42;;;;;;;1999.90;999.90;;;;;;;0.39;60.89;100165.75;5026431;27;99225;-72
2022/02/22 00:56:10;;;;;;;1999.90;999.90;;;;;;;0.39;61.15;100160.50;5024025;27;97678;-74
2022/02/22 00:58:38;;;;;;;1999.90;999.90;;;;;;;0.37;60.85;100165.66;5025831;28;97233;-74
2022/02/22 01:01:06;;;;;;;1999.90;999.90;;;;;;;0.35;61.77;100172.53;5024316;27;97676;-76
2022/02/22 01:03:34;;;;;;;1999.90;999.90;;;;;;;0.37;61.38;100164.75;5023331;28;99282;-73
2022/02/22 01:06:03;;;;;;;1999.90;999.90;;;;;;;0.36;61.45;100174.31;5024049;28;96951;-76
2022/02/22 01:08:32;;;;;;;1999.90;999.90;;;;;;;0.38;61.45;100187.47;5022088;27;96926;-75
2022/02/22 01:11:00;;;;;;;1999.90;999.90;;;;;;;0.41;61.13;100183.31;5022800;27;100308;-75
2022/02/22 01:13:27;;;;;;;1999.90;999.90;;;;;;;0.43;61.35;100204.34;5020269;27;97199;-76
2022/02/22 01:15:55;;;;;;;1999.90;999.90;;;;;;;0.41;60.76;100208.59;5020981;27;97790;-74
2022/02/22 01:18:23;;;;;;;1999.90;999.90;;;;;;;0.42;60.77;100226.09;5023136;28;97555;-73
2022/02/22 01:20:51;;;;;;;1999.90;999.90;;;;;;;0.44;60.46;100241.06;5022880;27;97231;-74
2022/02/22 01:23:20;;;;;;;1999.90;999.90;;;;;;;0.45;60.26;100248.06;5005480;28;98479;-75
2022/02/22 01:25:50;;;;;;;1999.90;999.90;;;;;;;0.46;60.38;100238.50;5022353;27;97942;-75
2022/02/22 01:28:18;;;;;;;1999.90;999.90;;;;;;;0.47;60.48;100242.91;5022369;28;96918;-73
2022/02/22 01:30:46;;;;;;;1999.90;999.90;;;;;;;0.50;60.37;100253.56;5025769;28;97150;-74
2022/02/22 01:33:13;;;;;;;1999.90;999.90;;;;;;;0.50;60.04;100241.38;5019301;27;98067;-74
2022/02/22 01:35:42;;;;;;;1999.90;999.90;;;;;;;0.51;60.60;100265.81;5021463;28;97379;-72
2022/02/22 01:38:09;;;;;;;1999.90;999.90;;;;;;;0.53;60.46;100261.56;5020606;28;98575;-75
2022/02/22 01:40:38;;;;;;;1999.90;999.90;;;;;;;0.52;60.38;100260.66;5022350;28;100334;-73
2022/02/22 01:43:06;;;;;;;1999.90;999.90;;;;;;;0.54;60.71;100271.25;5021834;28;98081;-75
2022/02/22 01:45:34;;;;;;;1999.90;999.90;;;;;;;0.53;61.07;100272.94;5021671;28;96899;-75
2022/02/22 01:48:03;;;;;;;1999.90;999.90;;;;;;;0.53;60.85;100283.41;5022818;27;97859;-73
2022/02/22 01:50:31;;;;;;;1999.90;999.90;;;;;;;0.54;60.73;100284.31;5023635;28;97107;-75
2022/02/22 01:52:59;;;;;;;1999.90;999.90;;;;;;;0.51;60.86;100318.16;5020942;27;98346;-73
2022/02/22 01:55:27;;;;;;;1999.90;999.90;;;;;;;0.49;61.04;100306.72;5021175;28;97216;-74
2022/02/22 01:57:56;;;;;;;1999.90;999.90;;;;;;;0.48;61.11;100328.47;5021937;27;97345;-76
2022/02/22 02:00:26;;;;;;;1999.90;999.90;;;;;;;0.43;61.50;100311.63;5021224;28;102075;-73
2022/02/22 02:02:55;;;;;;;1999.90;999.90;;;;;;;0.44;60.91;100311.72;5021324;27;97773;-73
2022/02/22 02:05:24;;;;;;;1999.90;999.90;;;;;;;0.42;61.00;100308.13;5020407;28;97248;-73
2022/02/22 02:07:52;;;;;;;1999.90;999.90;;;;;;;0.37;61.70;100345.31;5005726;28;96937;-73
2022/02/22 02:10:20;;;;;;;1999.90;999.90;;;;;;;0.38;60.80;100337.53;5022407;27;100479;-71
2022/02/22 02:12:48;;;;;;;1999.90;999.90;;;;;;;0.35;60.68;100352.19;5023286;27;97995;-72
2022/02/22 02:15:17;;;;;;;1999.90;999.90;;;;;;;0.30;60.74;100364.13;5022455;28;97611;-73
2022/02/22 02:17:44;;;;;;;1999.90;999.90;;;;;;;0.27;60.77;100363.94;5020106;27;99167;-73
2022/02/22 02:20:13;;;;;;;1999.90;999.90;;;;;;;0.19;60.81;100364.38;5021405;28;98932;-75
2022/02/22 02:22:43;;;;;;;1999.90;999.90;;;;;;;0.23;60.80;100375.03;5017595;28;97649;-73
2022/02/22 02:25:12;;;;;;;1999.90;999.90;;;;;;;0.20;60.60;100384.50;5018854;27;98037;-71
2022/02/22 02:27:40;;;;;;;1999.90;999.90;;;;;;;0.23;60.67;100406.44;5022240;28;96883;-73
2022/02/22 02:30:10;;;;;;;1999.90;999.90;;;;;;;0.19;60.66;100389.66;5021155;28;99238;-73
2022/02/22 02:32:38;;;;;;;1999.90;999.90;;;;;;;0.15;60.47;100404.28;5019636;28;98997;-74
2022/02/22 02:35:07;;;;;;;1999.90;999.90;;;;;;;0.12;60.53;100398.84;5023835;28;97557;-74
2022/02/22 02:37:36;;;;;;;1999.90;999.90;;;;;;;0.08;60.62;100417.81;5022078;28;97069;-72
2022/02/22 02:40:25;;;;;;;1999.90;999.90;;;;;;;0.03;60.34;100420.97;5021997;27;97567;-73
2022/02/22 02:42:53;;;;;;;1999.90;999.90;;;;;;;0.02;60.16;100421.81;5020913;28;101025;-75
2022/02/22 02:45:22;;;;;;;1999.90;999.90;;;;;;;0.00;60.28;100434.78;5021416;27;96975;-73
2022/02/22 02:47:50;;;;;;;1999.90;999.90;;;;;;;-0.01;60.15;100438.19;5037652;27;97945;-72
2022/02/22 02:50:17;;;;;;;1999.90;999.90;;;;;;;-0.06;60.17;100468.44;5020185;28;99390;-72
2022/02/22 02:52:45;;;;;;;1999.90;999.90;;;;;;;-0.07;60.41;100442.19;5004038;28;99229;-73
2022/02/22 02:55:13;;;;;;;1999.90;999.90;;;;;;;-0.07;60.23;100458.78;5022318;27;98499;-72
2022/02/22 02:57:42;;;;;;;1999.90;999.90;;;;;;;-0.08;60.25;100453.44;5022014;28;97672;-73
2022/02/22 03:00:11;;;;;;;1999.90;999.90;;;;;;;-0.12;60.20;100455.00;5020248;28;100605;-72
2022/02/22 03:02:39;;;;;;;1999.90;999.90;;;;;;;-0.16;60.72;100458.25;5016710;27;99175;-73
2022/02/22 03:05:09;;;;;;;1999.90;999.90;;;;;;;-0.22;60.80;100450.06;5020966;28;97445;-73
2022/02/22 03:07:36;;;;;;;1999.90;999.90;;;;;;;-0.20;60.29;100476.28;5019658;28;98727;-74
2022/02/22 03:10:06;;;;;;;1999.90;999.90;;;;;;;-0.21;60.32;100472.75;5020873;28;98071;-73
2022/02/22 03:12:33;;;;;;;1999.90;999.90;;;;;;;-0.21;60.27;100470.13;5020244;27;97838;-74
2022/02/22 03:15:03;;;;;;;1999.90;999.90;;;;;;;-0.21;60.02;100477.97;5038423;27;97744;-74
2022/02/22 03:17:31;;;;;;;1999.90;999.90;;;;;;;-0.22;60.20;100484.03;5023224;28;97254;-74
2022/02/22 03:19:59;;;;;;;1999.90;999.90;;;;;;;-0.23;59.84;100492.66;5021181;27;98486;-71
2022/02/22 03:22:27;;;;;;;1999.90;999.90;;;;;;;-0.21;59.85;100500.63;5019845;27;98744;-73
2022/02/22 03:24:55;;;;;;;1999.90;999.90;;;;;;;-0.22;59.79;100499.72;5019398;28;97730;-73
2022/02/22 03:27:22;;;;;;;1999.90;999.90;;;;;;;-0.21;59.54;100503.25;5021260;28;98869;-72
2022/02/22 03:29:50;;;;;;;1999.90;999.90;;;;;;;-0.25;59.47;100507.41;5021374;28;98713;-72
2022/02/22 03:32:19;;;;;;;1999.90;999.90;;;;;;;-0.26;59.47;100516.03;5020186;27;97925;-73
2022/02/22 03:34:46;;;;;;;1999.90;999.90;;;;;;;-0.27;59.62;100521.19;5019907;27;97208;-71
2022/02/22 03:37:14;;;;;;;1999.90;999.90;;;;;;;-0.34;59.32;100514.69;5019139;28;98287;-72
2022/02/22 03:39:42;;;;;;;1999.90;999.90;;;;;;;-0.34;59.50;100522.53;5018925;28;97826;-74
2022/02/22 03:42:10;;;;;;;1999.90;999.90;;;;;;;-0.36;59.33;100538.91;5020103;27;97664;-73
2022/02/22 03:44:39;;;;;;;1999.90;999.90;;;;;;;-0.37;59.40;100524.03;5018107;27;97791;-72
2022/02/22 03:47:07;;;;;;;1999.90;999.90;;;;;;;-0.39;59.39;100536.13;5023253;28;97564;-73
2022/02/22 03:49:36;;;;;;;1999.90;999.90;;;;;;;-0.39;59.58;100551.81;5018797;28;97609;-73
2022/02/22 03:52:04;;;;;;;1999.90;999.90;;;;;;;-0.43;59.43;100549.81;5021729;27;97559;-72
2022/02/22 03:54:32;;;;;;;1999.90;999.90;;;;;;;-0.45;59.82;100562.81;5018877;28;97780;-73
2022/02/22 03:56:59;;;;;;;1999.90;999.90;;;;;;;-0.46;59.55;100560.06;5021657;28;97277;-73
2022/02/22 03:59:27;;;;;;;1999.90;999.90;;;;;;;-0.49;59.77;100581.72;5013130;27;97604;-73
2022/02/22 04:01:55;;;;;;;1999.90;999.90;;;;;;;-0.51;59.78;100593.78;5012135;28;99853;-72
2022/02/22 04:04:23;;;;;;;1999.90;999.90;;;;;;;-0.54;59.79;100590.06;5015289;28;98459;-74
2022/02/22 04:06:52;;;;;;;1999.90;999.90;;;;;;;-0.55;59.42;100607.44;5012714;28;98181;-73
2022/02/22 04:09:20;;;;;;;1999.90;999.90;;;;;;;-0.55;59.70;100628.34;5017613;28;98733;-74
2022/02/22 04:11:47;;;;;;;1999.90;999.90;;;;;;;-0.97;74.31;100642.22;5023226;28;97954;-73
2022/02/22 04:14:15;;;;;;;1999.90;999.90;;;;;;;-1.27;79.45;100639.31;5018781;28;97865;-73
2022/02/22 04:16:43;;;;;;;1999.90;999.90;;;;;;;-1.57;80.29;100626.84;5021164;28;97151;-73
2022/02/22 04:19:10;;;;;;;1999.90;999.90;;;;;;;-1.69;81.24;100616.50;5019839;27;99019;-72
2022/02/22 04:21:38;;;;;;;1999.90;999.90;;;;;;;-1.78;79.41;100647.19;5022688;28;99183;-71
2022/02/22 04:24:08;;;;;;;1999.90;999.90;;;;;;;-1.91;79.70;100654.97;5024755;27;96916;-73
2022/02/22 04:26:35;;;;;;;1999.90;999.90;;;;;;;-2.02;78.91;100672.50;5021267;28;97985;-73
2022/02/22 04:29:03;;;;;;;1999.90;999.90;;;;;;;-2.11;95.43;100676.16;5023918;27;98928;-73
2022/02/22 04:31:33;;;;;;;1999.90;999.90;;;;;;;-2.14;85.53;100699.38;5028115;28;100909;-72
2022/02/22 04:34:01;;;;;;;1999.90;999.90;;;;;;;-2.15;77.52;100672.44;5029523;27;97721;-74
2022/02/22 04:36:28;;;;;;;1999.90;999.90;;;;;;;-2.15;76.43;100666.31;5028850;28;96973;-72
2022/02/22 04:38:56;;;;;;;1999.90;999.90;;;;;;;-2.16;75.86;100673.22;5028431;28;99793;-72
2022/02/22 04:41:25;;;;;;;1999.90;999.90;;;;;;;-2.16;75.05;100687.94;5031180;28;98147;-73
2022/02/22 04:43:54;;;;;;;1999.90;999.90;;;;;;;-2.18;74.62;100684.31;5029983;28;97726;-73
2022/02/22 04:46:22;;;;;;;1999.90;999.90;;;;;;;-2.17;74.95;100697.50;5027089;27;96975;-71
2022/02/22 04:48:50;;;;;;;1999.90;999.90;;;;;;;-2.14;74.30;100688.97;5024989;28;100749;-72
2022/02/22 04:51:18;;;;;;;1999.90;999.90;;;;;;;-2.15;74.09;100693.28;5022202;28;100320;-72
2022/02/22 04:53:45;;;;;;;1999.90;999.90;;;;;;;-2.13;73.52;100703.81;5022973;27;97413;-72
2022/02/22 04:56:13;;;;;;;1999.90;999.90;;;;;;;-2.08;72.19;100692.91;5016476;28;97386;-72
2022/02/22 04:58:42;;;;;;;1999.90;999.90;;;;;;;-2.05;71.29;100700.94;5022464;27;98078;-72
2022/02/22 05:01:10;;;;;;;1999.90;999.90;;;;;;;-1.98;69.82;100707.50;5021376;27;98779;-71
2022/02/22 05:03:38;;;;;;;1999.90;999.90;;;;;;;-1.92;67.64;100706.22;5020714;27;97717;-76
2022/02/22 05:06:05;;;;;;;1999.90;999.90;;;;;;;-1.89;66.55;100711.63;5022307;28;99311;-73
2022/02/22 05:08:33;;;;;;;1999.90;999.90;;;;;;;-1.81;64.25;100712.16;5020593;27;100389;-74
2022/02/22 05:11:01;;;;;;;1999.90;999.90;;;;;;;-1.75;63.59;100716.88;5023719;28;97603;-76
2022/02/22 05:13:29;;;;;;;1999.90;999.90;;;;;;;-1.73;62.31;100723.13;5023043;28;98010;-74
2022/02/22 05:15:58;;;;;;;1999.90;999.90;;;;;;;-1.70;62.70;100733.75;5022902;27;98481;-75
2022/02/22 05:18:26;;;;;;;1999.90;999.90;;;;;;;-1.66;61.91;100730.56;5024970;28;97631;-74
2022/02/22 05:20:56;;;;;;;1999.90;999.90;;;;;;;-1.62;62.22;100740.41;5020200;27;98259;-75
2022/02/22 05:23:25;;;;;;;1999.90;999.90;;;;;;;-1.62;61.92;100745.63;5021493;28;97511;-74
2022/02/22 05:25:53;;;;;;;1999.90;999.90;;;;;;;-1.61;62.40;100731.78;5025790;28;97626;-77
2022/02/22 05:28:22;;;;;;;1999.90;999.90;;;;;;;-1.60;62.52;100744.03;5021221;27;97965;-72
2022/02/22 05:30:51;;;;;;;1999.90;999.90;;;;;;;-1.57;62.22;100736.41;5018894;27;99493;-75
2022/02/22 05:33:20;;;;;;;1999.90;999.90;;;;;;;-1.55;62.31;100755.69;5034491;27;96983;-75
2022/02/22 05:35:49;;;;;;;1999.90;999.90;;;;;;;-1.50;61.54;100743.84;5019644;28;97718;-73
2022/02/22 05:38:17;;;;;;;1999.90;999.90;;;;;;;-1.52;61.84;100748.09;5020400;27;97770;-75
2022/02/22 05:40:45;;;;;;;1999.90;999.90;;;;;;;-1.47;61.45;100758.00;5019120;27;100470;-75
2022/02/22 05:43:13;;;;;;;1999.90;999.90;;;;;;;-1.47;62.02;100759.72;5022597;27;97322;-75
2022/02/22 05:45:42;;;;;;;1999.90;999.90;;;;;;;-1.43;61.29;100753.94;5020715;27;97907;-75
2022/02/22 05:48:12;;;;;;;1999.90;999.90;;;;;;;-1.46;61.96;100758.91;5022589;27;98673;-74
2022/02/22 05:50:41;;;;;;;1999.90;999.90;;;;;;;-1.41;61.25;100760.13;5018768;27;97848;-74
2022/02/22 05:53:09;;;;;;;1999.90;999.90;;;;;;;-1.41;61.87;100776.69;5021426;27;97083;-75
2022/02/22 05:55:38;;;;;;;1999.90;999.90;;;;;;;-1.43;62.19;100777.41;5021538;27;96839;-77
2022/02/22 05:58:06;;;;;;;1999.90;999.90;;;;;;;-1.44;62.34;100789.56;5023987;28;99316;-71
2022/02/22 06:00:34;;;;;;;1999.90;999.90;;;;;;;-1.41;61.55;100794.06;5022209;28;100597;-75
2022/02/22 06:03:02;;;;;;;1999.90;999.90;;;;;;;-1.44;61.43;100814.72;5022254;27;97236;-75
2022/02/22 06:05:29;;;;;;;1999.90;999.90;;;;;;;-1.47;61.76;100811.91;5021240;27;97334;-74
2022/02/22 06:08:01;;;;;;;1999.90;999.90;;;;;;;-1.49;61.85;100803.09;5014276;27;99253;-75
2022/02/22 06:10:29;;;;;;;1999.90;999.90;;;;;;;-1.52;61.59;100816.81;5017225;28;101043;-74
2022/02/22 06:12:56;;;;;;;1999.90;999.90;;;;;;;-1.50;61.49;100822.13;5020342;27;97267;-73
2022/02/22 06:15:24;;;;;;;1999.90;999.90;;;;;;;-1.53;61.22;100820.22;5023600;28;97094;-74
2022/02/22 06:17:52;;;;;;;1999.90;999.90;;;;;;;-1.54;61.91;100821.00;5024694;28;99617;-75
2022/02/22 06:20:20;;;;;;;1999.90;999.90;;;;;;;-1.55;61.46;100821.81;5019988;28;97749;-73
2022/02/22 06:22:48;;;;;;;1999.90;999.90;;;;;;;-1.53;62.08;100838.50;5040924;27;97728;-73
2022/02/22 06:25:17;;;;;;;1999.90;999.90;;;;;;;-1.50;61.71;100824.72;5022975;27;97599;-72
2022/02/22 06:27:49;;;;;;;1999.90;999.90;;;;;;;-1.49;61.84;100816.13;5019046;27;97871;-73
2022/02/22 06:30:17;;;;;;;1999.90;999.90;;;;;;;-1.46;61.66;100834.59;5020955;27;97155;-72
2022/02/22 06:32:44;;;;;;;1999.90;999.90;;;;;;;-1.47;61.55;100830.19;5023833;27;97619;-73
2022/02/22 06:35:12;;;;;;;1999.90;999.90;;;;;;;-1.47;61.79;100838.00;5023730;28;97547;-72
2022/02/22 06:37:40;;;;;;;1999.90;999.90;;;;;;;-1.44;61.30;100840.81;5023886;28;97863;-71
2022/02/22 06:40:09;;;;;;;1999.90;999.90;;;;;;;-1.45;61.05;100842.53;5021477;28;97826;-73
2022/02/22 06:42:39;;;;;;;1999.90;999.90;;;;;;;-1.42;61.12;100831.41;5022299;27;97392;-72
2022/02/22 06:45:09;;;;;;;1999.90;999.90;;;;;;;-1.38;60.85;100839.56;5023784;28;97259;-72
2022/02/22 06:47:38;;;;;;;1999.90;999.90;;;;;;;-1.42;61.01;100847.97;5024756;27;100523;-72
2022/02/22 06:50:07;;;;;;;1999.90;999.90;;;;;;;-1.43;61.38;100853.97;5024516;28;97512;-71
2022/02/22 06:52:35;;;;;;;1999.90;999.90;;;;;;;-1.42;61.77;100863.63;5023724;28;96942;-73
2022/02/22 06:55:05;;;;;;;1999.90;999.90;;;;;;;-1.38;61.11;100869.97;5023110;27;97542;-75
2022/02/22 06:57:33;;;;;;;1999.90;999.90;;;;;;;-1.36;61.53;100881.41;5022599;28;98280;-73
2022/02/22 07:00:02;;;;;;;1999.90;999.90;;;;;;;-1.36;61.08;100877.09;5020591;27;101078;-73
2022/02/22 07:02:31;;;;;;;1999.90;999.90;;;;;;;-1.35;61.08;100876.31;5022640;28;97614;-73
2022/02/22 07:04:59;;;;;;;1999.90;999.90;;;;;;;-1.37;61.15;100877.91;5022585;28;98254;-73
2022/02/22 07:07:27;;;;;;;1999.90;999.90;;;;;;;-1.34;61.07;100900.72;5021807;28;99364;-73
2022/02/22 07:09:55;;;;;;;1999.90;999.90;;;;;;;-1.34;61.10;100906.81;5023553;28;97365;-73
2022/02/22 07:12:23;;;;;;;1999.90;999.90;;;;;;;-1.31;61.20;100908.75;5039750;27;96752;-73
2022/02/22 07:14:50;;;;;;;1999.90;999.90;;;;;;;-1.30;60.69;100898.41;5025279;28;97182;-74
2022/02/22 07:17:21;;;;;;;1999.90;999.90;;;;;;;-1.30;60.89;100900.09;5024228;28;97628;-73
2022/02/22 07:19:48;;;;;;;1999.90;999.90;;;;;;;-1.23;60.64;100897.16;5022402;28;99419;-73
2022/02/22 07:22:16;;;;;;;1999.90;999.90;;;;;;;-1.29;61.07;100908.06;5025382;27;96900;-74
2022/02/22 07:24:44;;;;;;;1999.90;999.90;;;;;;;-1.27;60.96;100908.16;5023976;28;96875;-74
2022/02/22 07:27:11;;;;;;;1999.90;999.90;;;;;;;-1.27;61.33;100900.34;5023722;28;98140;-74
2022/02/22 07:29:39;;;;;;;1999.90;999.90;;;;;;;-1.28;61.62;100914.16;5024037;28;97761;-73
2022/02/22 07:32:08;;;;;;;1999.90;999.90;;;;;;;-1.30;60.87;100931.41;5023026;27;97245;-73
2022/02/22 07:34:37;;;;;;;1999.90;999.90;;;;;;;-1.27;60.55;100921.22;5021655;27;97157;-74
2022/02/22 07:37:05;;;;;;;1999.90;999.90;;;;;;;-1.27;61.34;100932.53;5024322;27;97793;-71
2022/02/22 07:39:33;;;;;;;1999.90;999.90;;;;;;;-1.26;61.15;100938.66;5024767;27;97682;-71
2022/02/22 07:42:00;;;;;;;1999.90;999.90;;;;;;;-1.23;61.86;100944.13;5024308;28;97764;-73
2022/02/22 07:44:29;;;;;;;1999.90;999.90;;;;;;;-1.17;61.33;100944.53;5024042;28;97203;-73
2022/02/22 07:46:57;;;;;;;1999.90;999.90;;;;;;;-1.14;61.18;100958.72;5022198;28;99144;-70
2022/02/22 07:49:25;;;;;;;1999.90;999.90;;;;;;;-1.09;60.38;100969.50;5023615;28;97617;-70
2022/02/22 07:52:14;;;;;;;1999.90;999.90;;;;;;;-1.04;60.55;100970.72;5024562;28;97470;-73
2022/02/22 07:54:42;;;;;;;1999.90;999.90;;;;;;;-1.03;60.51;100970.81;5008299;28;97798;-75
2022/02/22 07:57:09;;;;;;;1999.90;999.90;;;;;;;-0.97;60.39;100972.94;5027973;28;97793;-73
2022/02/22 07:59:37;;;;;;;1999.90;999.90;;;;;;;-0.95;60.85;100979.19;5024867;28;97970;-72
2022/02/22 08:02:05;;;;;;;1999.90;999.90;;;;;;;-0.94;60.31;100975.78;5026521;27;97613;-70
2022/02/22 08:04:32;;;;;;;1999.90;999.90;;;;;;;-0.81;60.08;100987.19;5029953;28;97107;-72
2022/02/22 08:07:00;;;;;;;1999.90;999.90;;;;;;;-0.75;60.29;100981.47;5031594;27;97970;-70
2022/02/22 08:09:29;;;;;;;1999.90;999.90;;;;;;;-0.74;59.81;100992.84;5032458;27;97371;-72
2022/02/22 08:11:57;;;;;;;1999.90;999.90;;;;;;;-0.70;59.84;100998.38;5033448;28;96680;-74
2022/02/22 08:14:25;;;;;;;1999.90;999.90;;;;;;;-0.64;59.80;100998.81;5032204;27;97327;-72
2022/02/22 08:16:57;;;;;;;1999.90;999.90;;;;;;;-0.59;59.72;100993.91;5026832;28;100534;-70
2022/02/22 08:19:25;;;;;;;1999.90;999.90;;;;;;;-0.56;59.89;101008.09;5027693;28;99389;-72
2022/02/22 08:21:53;;;;;;;1999.90;999.90;;;;;;;-0.47;59.45;101019.19;5026687;28;96797;-70
2022/02/22 08:24:21;;;;;;;1999.90;999.90;;;;;;;-0.47;59.49;101008.72;5027492;28;97850;-73
2022/02/22 08:26:51;;;;;;;1999.90;999.90;;;;;;;-0.48;59.43;101009.50;5027897;28;97375;-71
2022/02/22 08:29:19;;;;;;;1999.90;999.90;;;;;;;-0.43;59.49;101005.50;5025486;28;97652;-73
2022/02/22 08:31:47;;;;;;;1999.90;999.90;;;;;;;-0.37;59.29;101015.47;5025101;27;97263;-72
2022/02/22 08:34:15;;;;;;;1999.90;999.90;;;;;;;-0.33;59.07;101023.63;5025159;28;97352;-74
2022/02/22 08:36:43;;;;;;;1999.90;999.90;;;;;;;-0.28;59.07;101031.81;5024838;28;100531;-73
2022/02/22 08:39:11;;;;;;;1999.90;999.90;;;;;;;-0.23;58.68;101028.66;5026261;28;99478;-73
2022/02/22 08:41:39;;;;;;;1999.90;999.90;;;;;;;-0.21;58.73;101028.81;5026713;27;97241;-73
2022/02/22 08:44:09;;;;;;;1999.90;999.90;;;;;;;-0.20;58.60;101034.13;5025360;28;96914;-73
2022/02/22 08:46:37;;;;;;;1999.90;999.90;;;;;;;-0.13;58.39;101040.66;5025780;28;98472;-72
2022/02/22 08:49:05;;;;;;;1999.90;999.90;;;;;;;-0.08;58.45;101034.03;5009594;28;99341;-74
2022/02/22 08:51:33;;;;;;;1999.90;999.90;;;;;;;-0.09;58.46;101051.44;5043743;27;96722;-72
2022/02/22 08:54:02;;;;;;;1999.90;999.90;;;;;;;-0.08;58.36;101037.56;5027841;28;97273;-73
2022/02/22 08:56:30;;;;;;;1999.90;999.90;;;;;;;-0.04;58.26;101070.06;5025769;28;99359;-73
2022/02/22 08:58:58;;;;;;;1999.90;999.90;;;;;;;0.01;58.33;101061.72;5024571;28;99637;-73
2022/02/22 09:01:27;;;;;;;1999.90;999.90;;;;;;;0.09;58.16;101073.63;5010179;28;98398;-72
2022/02/22 09:03:55;;;;;;;1999.90;999.90;;;;;;;0.27;57.32;101066.09;5028381;27;96964;-74
2022/02/22 09:06:24;;;;;;;1999.90;999.90;;;;;;;0.10;57.97;101064.94;5026593;28;99561;-73
2022/02/22 09:08:52;;;;;;;1999.90;999.90;;;;;;;0.14;57.80;101063.44;5027554;28;99339;-74
2022/02/22 09:11:19;;;;;;;1999.90;999.90;;;;;;;0.19;57.79;101073.41;5029657;28;97502;-74
2022/02/22 09:13:47;;;;;;;1999.90;999.90;;;;;;;0.25;57.68;101062.47;5026535;27;97222;-74
2022/02/22 09:16:15;;;;;;;1999.90;999.90;;;;;;;0.29;57.70;101056.66;5027263;28;98119;-73
2022/02/22 09:18:44;;;;;;;1999.90;999.90;;;;;;;0.34;57.33;101055.25;5028191;28;98624;-73
2022/02/22 09:21:12;;;;;;;1999.90;999.90;;;;;;;0.41;57.89;101067.91;5027730;28;97655;-73
2022/02/22 09:23:40;;;;;;;1999.90;999.90;;;;;;;0.45;57.08;101069.06;5027589;27;97542;-75
2022/02/22 09:26:07;;;;;;;1999.90;999.90;;;;;;;0.49;57.01;101071.03;5010978;28;100804;-73
2022/02/22 09:28:35;;;;;;;1999.90;999.90;;;;;;;0.51;57.14;101065.13;5026394;28;99259;-72
2022/02/22 09:31:03;;;;;;;1999.90;999.90;;;;;;;0.55;56.72;101082.84;5026871;28;96904;-73
2022/02/22 09:33:31;;;;;;;1999.90;999.90;;;;;;;0.53;56.95;101099.25;5028132;28;97121;-72
2022/02/22 09:36:00;;;;;;;1999.90;999.90;;;;;;;0.56;56.89;101084.63;5026757;28;97613;-71
2022/02/22 09:38:28;;;;;;;1999.90;999.90;;;;;;;0.58;56.95;101092.59;5024338;27;97455;-74
2022/02/22 09:40:58;;;;;;;1999.90;999.90;;;;;;;0.59;56.46;101081.34;5028856;28;97308;-73
2022/02/22 09:43:26;;;;;;;1999.90;999.90;;;;;;;0.61;56.96;101077.09;5026070;27;98197;-74
2022/02/22 09:45:53;;;;;;;1999.90;999.90;;;;;;;0.63;57.02;101076.38;5026434;27;97614;-72
2022/02/22 09:48:21;;;;;;;1999.90;999.90;;;;;;;0.66;57.23;101112.34;5026688;28;97826;-72
2022/02/22 09:50:49;;;;;;;1999.90;999.90;;;;;;;0.71;57.06;101085.66;5027402;27;97760;-71
2022/02/22 09:53:18;;;;;;;1999.90;999.90;;;;;;;0.72;56.31;101091.81;5008112;28;97415;-72
2022/02/22 09:55:46;;;;;;;1999.90;999.90;;;;;;;0.74;56.30;101085.84;5008614;28;97704;-72
2022/02/22 09:58:17;;;;;;;1999.90;999.90;;;;;;;0.72;56.81;101082.22;5027095;28;97738;-73
2022/02/22 10:00:45;;;;;;;1999.90;999.90;;;;;;;0.69;56.83;101108.22;5007339;28;97226;-73
2022/02/22 10:03:17;;;;;;;1999.90;999.90;;;;;;;0.66;56.33;101075.69;5024349;28;97051;-74
2022/02/22 10:05:56;;;;;;;1999.90;999.90;;;;;;;0.66;56.60;101104.50;5023155;28;96841;-72
2022/02/22 10:08:26;;;;;;;1999.90;999.90;;;;;;;0.71;56.56;101089.97;5025084;27;97542;-73
2022/02/22 10:11:06;;;;;;;1999.90;999.90;;;;;;;0.73;56.54;101083.13;5026000;28;97136;-72
2022/02/22 10:13:34;;;;;;;1999.90;999.90;;;;;;;0.79;56.82;101096.63;5024351;28;97015;-72
2022/02/22 10:16:07;;;;;;;1999.90;999.90;;;;;;;0.83;56.59;101085.56;5023643;28;100695;-73
2022/02/22 10:18:45;;;;;;;1999.90;999.90;;;;;;;0.93;55.86;101093.19;5024508;27;100876;-73
2022/02/22 10:21:13;;;;;;;1999.90;999.90;;;;;;;0.83;56.21;101080.31;5024977;27;96618;-70
2022/02/22 10:23:43;;;;;;;1999.90;999.90;;;;;;;0.84;56.29;101085.66;5025974;28;97112;-72
2022/02/22 10:26:21;;;;;;;1999.90;999.90;;;;;;;0.87;55.56;101098.00;5008602;28;97431;-71
2022/02/22 10:28:49;;;;;;;1999.90;999.90;;;;;;;0.95;55.91;101076.75;5025645;28;100517;-71
2022/02/22 10:31:17;;;;;;;1999.90;999.90;;;;;;;1.02;55.62;101073.72;5026045;28;97230;-73
2022/02/22 10:33:46;;;;;;;1999.90;999.90;;;;;;;1.09;56.28;101082.88;5025420;27;96763;-71
2022/02/22 10:36:34;;;;;;;1999.90;999.90;;;;;;;1.11;55.67;101083.88;5023433;28;100106;-72
2022/02/22 10:39:06;;;;;;;1999.90;999.90;;;;;;;1.15;55.30;101091.13;5023373;28;99056;-72
2022/02/22 10:41:38;;;;;;;1999.90;999.90;;;;;;;1.13;55.13;101084.88;5025487;28;97234;-72
2022/02/22 10:44:08;;;;;;;1999.90;999.90;;;;;;;1.17;55.24;101090.44;5024538;27;96887;-72
2022/02/22 10:46:43;;;;;;;1999.90;999.90;;;;;;;1.16;55.44;101099.06;5041081;27;100058;-70
2022/02/22 10:49:13;;;;;;;1999.90;999.90;;;;;;;1.16;54.93;101085.97;5023823;28;98781;-71
2022/02/22 10:51:43;;;;;;;1999.90;999.90;;;;;;;1.17;55.79;101100.00;5006712;28;96820;-71
2022/02/22 10:54:18;;;;;;;1999.90;999.90;;;;;;;1.19;55.47;101094.06;5007438;28;97418;-71
2022/02/22 10:56:47;;;;;;;1999.90;999.90;;;;;;;1.23;55.57;101096.03;5024727;28;98777;-71